createdAt,value
2023-05-02T00:00:03.348Z,19.1278
2023-05-02T00:01:07.374Z,19.3226
2023-05-02T00:02:11.439Z,19.3766
2023-05-02T00:03:15.408Z,18.8184
2023-05-02T00:04:19.383Z,18.6427
2023-05-02T00:05:23.550Z,18.8290
2023-05-02T00:06:27.504Z,19.0309
2023-05-02T00:07:31.419Z,19.2327
2023-05-02T00:08:35.330Z,19.3111
2023-05-02T00:09:39.240Z,18.8258
2023-05-02T00:10:43.140Z,18.7559
2023-05-02T00:11:47.039Z,18.9788
2023-05-02T00:12:50.938Z,19.1826
2023-05-02T00:13:54.824Z,19.3735
2023-05-02T00:14:59.490Z,19.3998
2023-05-02T00:16:03.380Z,18.7830
2023-05-02T00:17:07.338Z,18.5830
2023-05-02T00:18:11.252Z,18.7999
2023-05-02T00:19:15.150Z,19.0117
2023-05-02T00:20:19.131Z,19.2111
2023-05-02T00:21:23.034Z,19.3048
2023-05-02T00:22:26.921Z,18.7811
2023-05-02T00:23:30.814Z,18.5511
2023-05-02T00:24:34.700Z,18.8421
2023-05-02T00:25:38.596Z,19.1033
2023-05-02T00:26:42.475Z,19.3024
2023-05-02T00:27:46.378Z,19.4253
2023-05-02T00:28:50.272Z,18.9515
2023-05-02T00:29:50.732Z,18.4934
2023-05-02T00:30:54.647Z,18.6775
2023-05-02T00:31:58.556Z,18.9966
2023-05-02T00:33:02.493Z,19.2270
2023-05-02T00:34:06.358Z,19.4063
2023-05-02T00:35:10.257Z,19.1516
2023-05-02T00:36:14.152Z,18.6425
2023-05-02T00:37:18.060Z,18.7106
2023-05-02T00:38:21.934Z,18.9010
2023-05-02T00:39:25.822Z,19.0887
2023-05-02T00:40:29.810Z,19.2847
2023-05-02T00:41:33.692Z,19.1222
2023-05-02T00:42:37.606Z,18.8787
2023-05-02T00:43:41.510Z,19.0101
2023-05-02T00:44:45.407Z,19.1977
2023-05-02T00:45:49.325Z,19.3908
2023-05-02T00:46:53.386Z,19.5282
2023-05-02T00:47:57.385Z,19.0441
2023-05-02T00:49:01.319Z,18.4517
2023-05-02T00:50:05.272Z,18.5712
2023-05-02T00:51:09.165Z,18.8365
2023-05-02T00:52:13.047Z,19.0398
2023-05-02T00:53:16.964Z,19.2292
2023-05-02T00:54:20.873Z,19.1250
2023-05-02T00:55:24.791Z,18.7888
2023-05-02T00:56:28.692Z,18.9683
2023-05-02T00:57:32.601Z,19.1878
2023-05-02T00:58:36.512Z,19.3817
2023-05-02T00:59:40.444Z,19.5449
2023-05-02T01:00:44.330Z,19.2049
2023-05-02T01:01:48.286Z,18.5205
2023-05-02T01:02:52.319Z,18.4796
2023-05-02T01:03:56.350Z,18.7820
2023-05-02T01:05:00.254Z,19.0186
2023-05-02T01:06:04.254Z,19.2150
2023-05-02T01:07:08.102Z,19.2473
2023-05-02T01:08:12.127Z,18.8656
2023-05-02T01:09:16.002Z,18.9082
2023-05-02T01:10:19.899Z,19.0792
2023-05-02T01:11:23.812Z,19.2711
2023-05-02T01:12:27.708Z,19.4568
2023-05-02T01:13:31.626Z,19.2597
2023-05-02T01:14:35.520Z,18.5997
2023-05-02T01:15:39.453Z,18.5472
2023-05-02T01:16:43.408Z,18.8390
2023-05-02T01:17:47.338Z,19.0735
2023-05-02T01:18:51.219Z,19.2725
2023-05-02T01:19:55.107Z,19.3099
2023-05-02T01:20:59.001Z,18.7387
2023-05-02T01:22:02.958Z,18.5642
2023-05-02T01:23:07.206Z,18.8278
2023-05-02T01:24:11.103Z,19.0566
2023-05-02T01:25:15.010Z,19.2500
2023-05-02T01:26:18.913Z,19.3464
2023-05-02T01:27:22.831Z,18.8437
2023-05-02T01:28:26.747Z,18.6658
2023-05-02T01:29:30.658Z,18.9181
2023-05-02T01:30:34.568Z,19.1359
2023-05-02T01:31:38.593Z,19.3241
2023-05-02T01:32:42.783Z,19.4233
2023-05-02T01:33:46.667Z,18.8688
2023-05-02T01:34:50.565Z,18.4399
2023-05-02T01:35:54.525Z,18.6758
2023-05-02T01:36:58.416Z,18.9649
2023-05-02T01:38:02.333Z,19.1782
2023-05-02T01:39:06.212Z,19.3493
2023-05-02T01:40:10.133Z,19.0656
2023-05-02T01:41:14.023Z,18.6133
2023-05-02T01:42:17.942Z,18.7857
2023-05-02T01:43:21.856Z,19.0525
2023-05-02T01:44:25.729Z,19.2577
2023-05-02T01:45:29.622Z,19.4304
2023-05-02T01:46:33.577Z,19.1638
2023-05-02T01:47:37.512Z,18.6103
2023-05-02T01:48:41.416Z,18.7059
2023-05-02T01:49:45.316Z,18.9496
2023-05-02T01:50:49.239Z,19.1515
2023-05-02T01:51:53.162Z,19.3424
2023-05-02T01:52:57.093Z,19.2113
2023-05-02T01:54:00.968Z,18.6198
2023-05-02T01:55:04.866Z,18.6477
2023-05-02T01:56:08.748Z,18.9214
2023-05-02T01:57:12.650Z,19.1315
2023-05-02T01:58:16.771Z,19.3159
2023-05-02T01:59:20.649Z,19.2758
2023-05-02T02:00:24.783Z,18.6851
2023-05-02T02:01:28.699Z,18.6389
2023-05-02T02:02:32.586Z,18.8800
2023-05-02T02:03:36.578Z,19.0823
2023-05-02T02:04:40.628Z,19.2765
2023-05-02T02:05:41.605Z,19.2998
2023-05-02T02:06:45.624Z,18.8023
2023-05-02T02:07:49.896Z,18.7603
2023-05-02T02:08:53.782Z,18.9326
2023-05-02T02:09:57.805Z,19.1235
2023-05-02T02:11:01.795Z,19.3242
2023-05-02T02:12:05.712Z,19.2757
2023-05-02T02:13:09.624Z,18.6855
2023-05-02T02:14:13.536Z,18.6547
2023-05-02T02:15:17.444Z,18.9193
2023-05-02T02:16:21.416Z,19.1335
2023-05-02T02:17:25.676Z,19.3343
2023-05-02T02:18:29.851Z,19.3377
2023-05-02T02:19:33.746Z,18.7318
2023-05-02T02:20:37.644Z,18.5593
2023-05-02T02:21:41.519Z,18.7780
2023-05-02T02:22:45.646Z,18.9907
2023-05-02T02:23:49.563Z,19.1845
2023-05-02T02:24:54.405Z,19.2684
2023-05-02T02:25:58.495Z,18.8135
2023-05-02T02:27:02.388Z,18.7939
2023-05-02T02:28:06.280Z,19.0005
2023-05-02T02:29:10.184Z,19.2029
2023-05-02T02:30:14.119Z,19.3922
2023-05-02T02:31:18.093Z,19.3567
2023-05-02T02:32:21.956Z,18.7087
2023-05-02T02:33:25.840Z,18.5244
2023-05-02T02:34:29.726Z,18.7908
2023-05-02T02:35:33.615Z,19.0629
2023-05-02T02:36:37.521Z,19.2693
2023-05-02T02:37:41.404Z,19.3574
2023-05-02T02:38:45.291Z,18.8511
2023-05-02T02:39:49.174Z,18.6710
2023-05-02T02:40:53.051Z,18.8432
2023-05-02T02:41:56.937Z,19.0331
2023-05-02T02:43:00.848Z,19.2283
2023-05-02T02:44:04.726Z,19.3175
2023-05-02T02:45:09.570Z,18.8492
2023-05-02T02:46:13.489Z,18.7652
2023-05-02T02:47:17.350Z,18.9611
2023-05-02T02:48:21.233Z,19.1636
2023-05-02T02:49:25.147Z,19.3587
2023-05-02T02:50:29.025Z,19.3653
2023-05-02T02:51:32.961Z,18.7455
2023-05-02T02:52:37.095Z,18.5492
2023-05-02T02:53:41.001Z,18.8304
2023-05-02T02:54:44.928Z,19.0832
2023-05-02T02:55:49.593Z,19.2828
2023-05-02T02:56:53.485Z,19.3809
2023-05-02T02:57:57.378Z,18.8384
2023-05-02T02:59:01.272Z,18.4399
2023-05-02T03:00:05.390Z,18.6620
2023-05-02T03:01:09.300Z,18.9470
2023-05-02T03:02:13.221Z,19.1664
2023-05-02T03:03:17.169Z,19.3347
2023-05-02T03:04:21.155Z,18.9812
2023-05-02T03:05:25.667Z,18.5836
2023-05-02T03:06:29.627Z,18.7965
2023-05-02T03:07:33.626Z,19.0637
2023-05-02T03:08:37.544Z,19.2683
2023-05-02T03:09:41.454Z,19.4315
2023-05-02T03:10:45.354Z,19.0924
2023-05-02T03:11:49.267Z,18.5050
2023-05-02T03:12:53.188Z,18.6020
2023-05-02T03:13:57.097Z,18.9137
2023-05-02T03:15:01.259Z,19.1488
2023-05-02T03:16:05.181Z,19.3379
2023-05-02T03:17:09.172Z,19.2305
2023-05-02T03:18:13.083Z,18.6349
2023-05-02T03:19:17.279Z,18.5957
2023-05-02T03:20:21.167Z,18.8380
2023-05-02T03:21:25.069Z,19.0601
2023-05-02T03:22:28.954Z,19.2613
2023-05-02T03:23:32.835Z,19.2309
2023-05-02T03:24:36.710Z,18.9010
2023-05-02T03:25:40.614Z,18.9857
2023-05-02T03:26:44.514Z,19.1652
2023-05-02T03:27:48.405Z,19.3568
2023-05-02T03:28:52.396Z,19.5304
2023-05-02T03:29:56.300Z,19.2096
2023-05-02T03:31:00.326Z,18.5019
2023-05-02T03:32:04.407Z,18.4255
2023-05-02T03:33:08.417Z,18.7498
2023-05-02T03:34:12.305Z,19.0445
2023-05-02T03:35:16.196Z,19.2606
2023-05-02T03:36:20.090Z,19.3233
2023-05-02T03:37:24.003Z,18.7794
2023-05-02T03:38:27.913Z,18.6067
2023-05-02T03:39:31.824Z,18.8650
2023-05-02T03:40:35.713Z,19.0891
2023-05-02T03:41:39.595Z,19.2847
2023-05-02T03:42:43.493Z,19.3689
2023-05-02T03:43:47.376Z,18.8671
2023-05-02T03:44:51.276Z,18.7012
2023-05-02T03:45:55.154Z,18.9283
2023-05-02T03:46:59.125Z,19.1640
2023-05-02T03:48:03.135Z,19.3641
2023-05-02T03:49:07.003Z,19.4320
2023-05-02T03:50:07.411Z,18.8593
2023-05-02T03:51:11.308Z,18.4191
2023-05-02T03:52:15.198Z,18.6458
2023-05-02T03:53:19.094Z,18.9546
2023-05-02T03:54:22.984Z,19.1746
2023-05-02T03:55:26.878Z,19.3537
2023-05-02T03:56:30.749Z,19.0905
2023-05-02T03:57:34.690Z,18.5464
2023-05-02T03:58:38.546Z,18.6767
2023-05-02T03:59:42.419Z,18.9698
2023-05-02T04:00:46.316Z,19.1899
2023-05-02T04:01:50.318Z,19.3743
2023-05-02T04:02:54.548Z,19.2274
2023-05-02T04:03:58.512Z,18.6030
2023-05-02T04:05:02.391Z,18.6083
2023-05-02T04:06:06.285Z,18.9325
2023-05-02T04:07:10.170Z,19.1825
2023-05-02T04:08:14.044Z,19.3709
2023-05-02T04:09:17.929Z,19.3696
2023-05-02T04:10:21.824Z,18.7176
2023-05-02T04:11:25.790Z,18.3966
2023-05-02T04:12:29.632Z,18.6667
2023-05-02T04:13:33.523Z,18.9582
2023-05-02T04:14:37.442Z,19.1786
2023-05-02T04:15:41.351Z,19.3329
2023-05-02T04:16:45.302Z,18.9613
2023-05-02T04:17:49.264Z,18.7899
2023-05-02T04:18:53.146Z,18.9618
2023-05-02T04:19:57.037Z,19.1586
2023-05-02T04:21:00.941Z,19.3482
2023-05-02T04:22:04.869Z,19.4388
2023-05-02T04:23:04.965Z,18.9051
2023-05-02T04:24:08.872Z,18.5721
2023-05-02T04:25:12.780Z,18.7795
2023-05-02T04:26:16.689Z,19.0193
2023-05-02T04:27:20.586Z,19.2250
2023-05-02T04:28:24.531Z,19.3832
2023-05-02T04:29:28.421Z,19.0047
2023-05-02T04:30:32.325Z,18.6685
2023-05-02T04:31:36.276Z,18.8767
2023-05-02T04:32:40.277Z,19.1194
2023-05-02T04:33:44.185Z,19.3207
2023-05-02T04:34:48.051Z,19.4736
2023-05-02T04:35:52.213Z,19.0772
2023-05-02T04:36:56.117Z,18.5283
2023-05-02T04:38:00.256Z,18.6196
2023-05-02T04:39:04.173Z,18.9130
2023-05-02T04:40:08.109Z,19.1510
2023-05-02T04:41:12.007Z,19.3490
2023-05-02T04:42:15.914Z,19.1831
2023-05-02T04:43:19.822Z,18.5792
2023-05-02T04:44:23.735Z,18.5923
2023-05-02T04:45:27.873Z,18.8605
2023-05-02T04:46:31.886Z,19.0888
2023-05-02T04:47:35.824Z,19.2903
2023-05-02T04:48:39.723Z,19.2565
2023-05-02T04:49:43.621Z,18.7586
2023-05-02T04:50:47.509Z,18.7525
2023-05-02T04:51:51.407Z,18.9287
2023-05-02T04:52:55.317Z,19.1190
2023-05-02T04:53:59.235Z,19.3162
2023-05-02T04:55:03.133Z,19.2237
2023-05-02T04:56:07.013Z,18.7410
2023-05-02T04:57:11.040Z,18.8036
2023-05-02T04:58:14.964Z,19.0236
2023-05-02T04:59:18.866Z,19.2261
2023-05-02T05:00:19.268Z,19.4107
2023-05-02T05:01:23.180Z,19.2817
2023-05-02T05:02:27.302Z,18.6348
2023-05-02T05:03:31.338Z,18.5775
2023-05-02T05:04:35.232Z,18.8728
2023-05-02T05:05:39.254Z,19.1105
2023-05-02T05:06:43.259Z,19.2996
2023-05-02T05:07:47.125Z,19.3272
2023-05-02T05:08:51.011Z,18.7209
2023-05-02T05:09:54.940Z,18.5043
2023-05-02T05:10:59.125Z,18.7984
2023-05-02T05:12:03.037Z,19.0554
2023-05-02T05:13:07.183Z,19.2564
2023-05-02T05:14:11.111Z,19.3789
2023-05-02T05:15:15.008Z,18.8808
2023-05-02T05:16:18.981Z,18.4612
2023-05-02T05:17:22.920Z,18.6915
2023-05-02T05:18:26.793Z,18.9557
2023-05-02T05:19:30.681Z,19.1572
2023-05-02T05:20:34.562Z,19.3311
2023-05-02T05:23:09.552Z,19.9536
2023-05-02T05:24:11.308Z,18.7504
2023-05-02T05:25:13.017Z,17.9285
2023-05-02T05:26:14.720Z,17.8526
2023-05-02T05:27:16.481Z,18.2939
2023-05-02T05:28:18.187Z,18.7849
2023-05-02T05:29:19.900Z,19.1250
2023-05-02T05:30:21.627Z,19.2850
2023-05-02T05:31:23.348Z,19.0115
2023-05-02T05:32:25.109Z,18.9956
2023-05-02T05:33:26.907Z,19.1405
2023-05-02T05:34:28.530Z,19.3117
2023-05-02T05:35:30.248Z,19.4778
2023-05-02T05:36:31.937Z,19.4826
2023-05-02T05:37:33.653Z,18.8774
2023-05-02T05:38:35.377Z,18.6753
2023-05-02T05:39:37.111Z,18.8928
2023-05-02T05:40:38.820Z,19.1275
2023-05-02T05:41:40.542Z,19.3211
2023-05-02T05:42:42.261Z,19.4654
2023-05-02T05:43:43.970Z,19.0849
2023-05-02T05:44:45.736Z,18.7922
2023-05-02T05:45:47.440Z,18.9566
2023-05-02T05:46:50.024Z,19.1541
2023-05-02T05:47:50.921Z,19.3474
2023-05-02T05:48:52.603Z,19.5118
2023-05-02T05:49:54.321Z,19.2232
2023-05-02T05:50:56.031Z,18.7191
2023-05-02T05:51:57.762Z,18.8212
2023-05-02T05:52:59.482Z,19.0794
2023-05-02T05:54:01.191Z,19.2888
2023-05-02T05:55:02.885Z,19.4707
2023-05-02T05:56:04.609Z,19.4245
2023-05-02T05:57:06.339Z,18.8275
2023-05-02T05:58:08.060Z,18.6980
2023-05-02T05:59:09.784Z,18.9831
2023-05-02T06:00:11.503Z,19.2339
2023-05-02T06:01:13.215Z,19.4240
2023-05-02T06:02:15.001Z,19.5541
2023-05-02T06:03:16.705Z,19.1128
2023-05-02T06:04:18.367Z,18.5632
2023-05-02T06:05:20.105Z,18.6755
2023-05-02T06:06:21.894Z,19.0063
2023-05-02T06:07:23.533Z,19.2615
2023-05-02T06:08:25.264Z,19.4474
2023-05-02T06:09:26.979Z,19.4310
2023-05-02T06:10:28.787Z,18.8027
2023-05-02T06:11:30.415Z,18.4915
2023-05-02T06:12:32.139Z,18.7753
2023-05-02T06:13:33.854Z,19.1058
2023-05-02T06:14:35.586Z,19.3262
2023-05-02T06:15:37.365Z,19.4872
2023-05-02T06:16:39.128Z,19.2375
2023-05-02T06:17:40.747Z,18.6141
2023-05-02T06:18:42.428Z,18.6034
2023-05-02T06:19:44.151Z,18.9151
2023-05-02T06:20:45.892Z,19.1970
2023-05-02T06:21:47.619Z,19.3916
2023-05-02T06:22:49.338Z,19.4563
2023-05-02T06:23:51.053Z,18.9343
2023-05-02T06:24:52.768Z,18.7213
2023-05-02T06:25:54.494Z,18.9203
2023-05-02T06:26:56.231Z,19.1165
2023-05-02T06:27:57.939Z,19.3026
2023-05-02T06:28:59.664Z,19.4520
2023-05-02T06:30:01.623Z,19.1049
2023-05-02T06:31:03.190Z,18.8919
2023-05-02T06:32:04.874Z,19.0968
2023-05-02T06:33:06.584Z,19.2778
2023-05-02T06:34:08.246Z,19.4457
2023-05-02T06:35:09.992Z,19.5929
2023-05-02T06:36:11.661Z,19.2039
2023-05-02T06:37:13.391Z,18.5761
2023-05-02T06:38:15.106Z,18.5939
2023-05-02T06:39:16.827Z,18.9302
2023-05-02T06:40:18.537Z,19.2165
2023-05-02T06:41:20.299Z,19.4120
2023-05-02T06:42:21.986Z,19.4796
2023-05-02T06:43:23.710Z,18.9114
2023-05-02T06:44:25.469Z,18.4595
2023-05-02T06:45:27.165Z,18.6618
2023-05-02T06:46:28.895Z,18.9905
2023-05-02T06:47:30.701Z,19.2299
2023-05-02T06:48:32.319Z,19.4156
2023-05-02T06:49:34.032Z,19.2985
2023-05-02T06:50:35.775Z,18.7568
2023-05-02T06:51:37.503Z,18.7818
2023-05-02T06:52:39.205Z,19.0172
2023-05-02T06:53:40.970Z,19.2191
2023-05-02T06:54:42.659Z,19.4006
2023-05-02T06:55:44.379Z,19.4191
2023-05-02T06:56:46.111Z,18.8374
2023-05-02T06:57:47.822Z,18.6347
2023-05-02T06:58:49.556Z,18.8940
2023-05-02T06:59:51.308Z,19.1408
2023-05-02T07:00:53.005Z,19.3345
2023-05-02T07:01:54.717Z,19.4784
2023-05-02T07:02:56.487Z,19.1129
2023-05-02T07:03:58.196Z,18.7194
2023-05-02T07:04:59.883Z,18.8777
2023-05-02T07:06:01.684Z,19.1075
2023-05-02T07:07:03.333Z,19.2984
2023-05-02T07:08:05.053Z,19.4740
2023-05-02T07:09:06.784Z,19.2851
2023-05-02T07:10:08.505Z,18.7988
2023-05-02T07:11:10.241Z,18.8703
2023-05-02T07:12:11.935Z,19.0827
2023-05-02T07:13:13.653Z,19.2817
2023-05-02T07:14:15.378Z,19.4660
2023-05-02T07:15:17.065Z,19.4013
2023-05-02T07:16:18.846Z,18.8095
2023-05-02T07:17:20.540Z,18.6896
2023-05-02T07:18:22.236Z,18.9285
2023-05-02T07:19:23.954Z,19.1782
2023-05-02T07:20:25.743Z,19.3745
2023-05-02T07:21:27.419Z,19.6074
2023-05-02T07:22:29.115Z,20.0156
2023-05-02T07:23:30.847Z,20.0687
2023-05-02T07:24:32.568Z,20.0348
2023-05-02T07:25:34.279Z,20.0225
2023-05-02T07:26:35.996Z,20.0192
2023-05-02T07:27:37.742Z,20.0040
2023-05-02T07:28:39.453Z,20.0024
2023-05-02T07:29:41.183Z,19.9834
2023-05-02T07:30:42.891Z,19.9859
2023-05-02T07:31:44.668Z,19.9932
2023-05-02T07:32:46.393Z,19.9895
2023-05-02T07:33:48.065Z,20.0103
2023-05-02T07:34:49.758Z,19.9935
2023-05-02T07:35:51.485Z,20.0062
2023-05-02T07:36:53.203Z,20.0285
2023-05-02T07:37:54.997Z,20.0380
2023-05-02T07:38:57.448Z,20.0276
2023-05-02T07:40:01.598Z,20.0215
2023-05-02T07:41:05.779Z,20.0052
2023-05-02T07:42:09.674Z,20.0154
2023-05-02T07:43:13.563Z,20.0212
2023-05-02T07:44:17.438Z,20.0310
2023-05-02T07:45:21.492Z,20.0273
2023-05-02T07:46:25.554Z,20.0199
2023-05-02T07:47:33.434Z,20.0247
2023-05-02T07:48:32.029Z,20.0383
2023-05-02T07:49:35.907Z,20.0349
2023-05-02T07:50:39.823Z,20.0282
2023-05-02T07:51:44.581Z,20.0247
2023-05-02T07:52:48.875Z,20.0485
2023-05-02T07:53:52.278Z,20.0690
2023-05-02T07:54:56.181Z,20.0928
2023-05-02T07:56:00.134Z,20.1006
2023-05-02T07:57:04.148Z,20.1083
2023-05-02T07:58:08.041Z,20.1045
2023-05-02T07:59:12.176Z,20.0961
2023-05-02T08:00:16.135Z,20.1127
2023-05-02T08:01:20.027Z,20.1130
2023-05-02T08:02:25.852Z,20.1107
2023-05-02T08:03:24.800Z,20.0999
2023-05-02T08:04:30.610Z,20.0915
2023-05-02T08:05:29.297Z,20.1043
2023-05-02T08:06:33.252Z,20.1010
2023-05-02T08:07:37.390Z,20.1008
2023-05-02T08:08:41.330Z,20.1241
2023-05-02T08:09:45.243Z,20.1221
2023-05-02T08:10:49.281Z,20.1206
2023-05-02T08:11:53.178Z,20.1275
2023-05-02T08:12:59.384Z,20.1342
2023-05-02T08:13:58.490Z,20.1241
2023-05-02T08:14:58.916Z,19.7806
2023-05-02T08:16:02.914Z,18.6668
2023-05-02T08:17:06.790Z,17.9362
2023-05-02T08:18:10.804Z,17.7488
2023-05-02T08:19:14.726Z,17.9954
2023-05-02T08:20:18.596Z,18.3911
2023-05-02T08:21:22.517Z,18.8040
2023-05-02T08:22:26.390Z,19.0447
2023-05-02T08:23:30.308Z,18.9408
2023-05-02T08:24:34.210Z,19.0168
2023-05-02T08:25:38.156Z,19.1930
2023-05-02T08:26:42.073Z,19.3814
2023-05-02T08:27:45.987Z,19.5704
2023-05-02T08:28:49.890Z,19.4355
2023-05-02T08:29:53.839Z,18.7815
2023-05-02T08:30:57.724Z,18.5041
2023-05-02T08:32:01.728Z,18.7676
2023-05-02T08:33:05.706Z,19.0515
2023-05-02T08:34:09.614Z,19.2602
2023-05-02T08:35:13.493Z,19.4242
2023-05-02T08:36:17.378Z,19.0959
2023-05-02T08:37:21.301Z,18.6925
2023-05-02T08:38:25.186Z,18.8347
2023-05-02T08:39:29.082Z,19.0611
2023-05-02T08:40:41.571Z,19.2590
2023-05-02T08:41:37.461Z,19.4483
2023-05-02T08:42:41.375Z,19.2175
2023-05-02T08:43:45.406Z,18.6590
2023-05-02T08:44:49.298Z,18.7249
2023-05-02T08:45:53.202Z,19.0057
2023-05-02T08:46:57.160Z,19.2248
2023-05-02T08:48:01.146Z,19.4090
2023-05-02T08:49:05.015Z,19.3838
2023-05-02T08:50:09.188Z,18.8054
2023-05-02T08:51:13.087Z,18.6281
2023-05-02T08:52:16.995Z,18.8815
2023-05-02T08:53:20.927Z,19.0953
2023-05-02T08:54:25.025Z,19.2868
2023-05-02T08:55:28.946Z,19.4073
2023-05-02T08:56:32.868Z,18.9727
2023-05-02T08:57:37.097Z,18.7602
2023-05-02T08:58:41.046Z,18.9380
2023-05-02T08:59:44.910Z,19.1390
2023-05-02T09:00:48.831Z,19.3402
2023-05-02T09:01:52.723Z,19.4655
2023-05-02T09:02:56.636Z,18.9975
2023-05-02T09:04:00.609Z,18.6238
2023-05-02T09:05:04.514Z,18.8335
2023-05-02T09:06:08.432Z,19.0628
2023-05-02T09:07:12.328Z,19.2646
2023-05-02T09:08:16.213Z,19.4357
2023-05-02T09:09:20.127Z,19.1410
2023-05-02T09:10:24.039Z,18.6924
2023-05-02T09:11:27.991Z,18.8611
2023-05-02T09:12:32.087Z,19.1018
2023-05-02T09:13:35.996Z,19.2978
2023-05-02T09:14:39.875Z,19.4721
2023-05-02T09:15:43.781Z,19.2905
2023-05-02T09:16:47.793Z,18.7007
2023-05-02T09:17:51.982Z,18.7025
2023-05-02T09:18:55.918Z,18.9663
2023-05-02T09:19:59.936Z,19.1846
2023-05-02T09:21:03.849Z,19.3764
2023-05-02T09:22:07.768Z,19.3742
2023-05-02T09:23:11.682Z,18.7885
2023-05-02T09:24:15.614Z,18.6785
2023-05-02T09:25:19.753Z,18.9457
2023-05-02T09:26:23.675Z,19.1702
2023-05-02T09:27:27.532Z,19.3619
2023-05-02T09:28:31.430Z,19.4471
2023-05-02T09:29:35.349Z,18.9202
2023-05-02T09:30:39.296Z,18.6141
2023-05-02T09:31:55.616Z,18.8578
2023-05-02T09:32:47.748Z,19.1464
2023-05-02T09:33:51.640Z,19.3456
2023-05-02T09:34:55.552Z,19.4920
2023-05-02T09:35:59.438Z,19.1167
2023-05-02T09:37:03.363Z,18.5545
2023-05-02T09:38:07.231Z,18.6578
2023-05-02T09:39:11.132Z,18.9655
2023-05-02T09:40:15.065Z,19.1943
2023-05-02T09:41:18.945Z,19.3783
2023-05-02T09:42:22.858Z,19.2745
2023-05-02T09:43:26.755Z,18.7572
2023-05-02T09:44:30.752Z,18.8366
2023-05-02T09:45:35.362Z,19.1009
2023-05-02T09:46:39.404Z,19.3061
2023-05-02T09:47:43.304Z,19.4835
2023-05-02T09:48:47.162Z,19.3963
2023-05-02T09:49:51.069Z,18.7244
2023-05-02T09:50:54.989Z,18.4913
2023-05-02T09:51:58.890Z,18.7999
2023-05-02T09:53:02.928Z,19.0858
2023-05-02T09:54:06.925Z,19.2914
2023-05-02T09:55:10.789Z,19.4250
2023-05-02T09:56:14.710Z,18.9948
2023-05-02T09:57:18.643Z,18.6529
2023-05-02T09:58:22.535Z,18.8591
2023-05-02T09:59:26.425Z,19.1051
2023-05-02T10:00:30.347Z,19.3003
2023-05-02T10:01:34.269Z,19.4539
2023-05-02T10:02:38.258Z,19.1062
2023-05-02T10:03:42.187Z,18.5547
2023-05-02T10:04:46.144Z,18.6941
2023-05-02T10:05:50.071Z,19.0046
2023-05-02T10:06:53.978Z,19.2304
2023-05-02T10:07:57.893Z,19.4113
2023-05-02T10:09:01.817Z,19.2833
2023-05-02T10:10:05.733Z,18.7531
2023-05-02T10:11:09.633Z,18.8107
2023-05-02T10:12:13.564Z,19.0726
2023-05-02T10:13:17.475Z,19.2794
2023-05-02T10:14:21.491Z,19.4575
2023-05-02T10:15:25.374Z,19.3625
2023-05-02T10:16:29.290Z,18.8234
2023-05-02T10:17:33.550Z,18.8015
2023-05-02T10:18:37.458Z,18.9642
2023-05-02T10:19:41.370Z,19.1502
2023-05-02T10:20:45.257Z,19.3457
2023-05-02T10:21:49.178Z,19.2833
2023-05-02T10:22:53.100Z,18.8346
2023-05-02T10:23:56.993Z,18.8780
2023-05-02T10:25:01.201Z,19.0666
2023-05-02T10:26:05.365Z,19.2639
2023-05-02T10:27:09.295Z,19.4544
2023-05-02T10:28:13.194Z,19.2946
2023-05-02T10:29:17.145Z,18.7061
2023-05-02T10:30:21.039Z,18.7113
2023-05-02T10:31:24.960Z,19.0057
2023-05-02T10:32:29.219Z,19.2382
2023-05-02T10:33:33.125Z,19.4221
2023-05-02T10:34:36.988Z,19.4080
2023-05-02T10:35:40.959Z,18.8021
2023-05-02T10:36:44.826Z,18.6179
2023-05-02T10:37:48.896Z,18.8974
2023-05-02T10:38:52.792Z,19.1310
2023-05-02T10:39:56.693Z,19.3159
2023-05-02T10:41:00.576Z,19.4301
2023-05-02T10:42:04.488Z,18.9865
2023-05-02T10:43:08.414Z,18.7687
2023-05-02T10:44:12.323Z,18.9601
2023-05-02T10:45:16.234Z,19.1881
2023-05-02T10:46:20.189Z,19.3848
2023-05-02T10:47:24.152Z,19.4869
2023-05-02T10:48:28.104Z,18.9679
2023-05-02T10:49:32.029Z,18.4929
2023-05-02T10:50:36.138Z,18.7009
2023-05-02T10:51:40.044Z,19.0228
2023-05-02T10:52:43.951Z,19.2489
2023-05-02T10:53:47.893Z,19.4221
2023-05-02T10:54:51.810Z,19.2124
2023-05-02T10:55:55.717Z,18.6646
2023-05-02T10:56:59.625Z,18.7556
2023-05-02T10:58:03.529Z,19.0255
2023-05-02T10:59:07.435Z,19.2372
2023-05-02T11:00:07.632Z,19.4124
2023-05-02T11:01:11.587Z,19.3233
2023-05-02T11:02:15.708Z,18.7449
2023-05-02T11:03:19.642Z,18.7325
2023-05-02T11:04:23.532Z,18.9939
2023-05-02T11:05:27.399Z,19.2050
2023-05-02T11:06:31.323Z,19.3899
2023-05-02T11:07:35.234Z,19.3953
2023-05-02T11:08:39.167Z,18.8308
2023-05-02T11:09:43.056Z,18.7202
2023-05-02T11:10:46.986Z,18.9822
2023-05-02T11:11:50.899Z,19.2183
2023-05-02T11:12:54.797Z,19.4067
2023-05-02T11:13:58.698Z,19.4547
2023-05-02T11:15:02.790Z,18.8768
2023-05-02T11:16:06.920Z,18.5879
2023-05-02T11:17:10.786Z,18.8303
2023-05-02T11:18:14.811Z,19.1124
2023-05-02T11:19:18.678Z,19.3248
2023-05-02T11:20:22.549Z,19.4553
2023-05-02T11:21:26.442Z,19.0132
2023-05-02T11:22:30.350Z,18.5766
2023-05-02T11:23:34.219Z,18.7862
2023-05-02T11:24:38.142Z,19.0584
2023-05-02T11:25:42.098Z,19.2611
2023-05-02T11:26:45.978Z,19.4316
2023-05-02T11:27:49.917Z,19.1759
2023-05-02T11:28:53.809Z,18.7131
2023-05-02T11:29:57.723Z,18.8485
2023-05-02T11:31:01.614Z,19.1059
2023-05-02T11:32:05.554Z,19.3098
2023-05-02T11:33:09.470Z,19.4858
2023-05-02T11:34:13.333Z,19.2639
2023-05-02T11:35:17.228Z,18.6453
2023-05-02T11:36:21.147Z,18.6748
2023-05-02T11:37:25.049Z,18.9951
2023-05-02T11:38:28.992Z,19.2374
2023-05-02T11:39:32.890Z,19.4216
2023-05-02T11:40:36.799Z,19.3905
2023-05-02T11:41:40.724Z,18.7820
2023-05-02T11:42:44.632Z,18.6627
2023-05-02T11:43:48.542Z,18.9360
2023-05-02T11:44:52.461Z,19.1655
2023-05-02T11:45:56.463Z,19.3570
2023-05-02T11:47:00.385Z,19.4304
2023-05-02T11:48:04.349Z,18.8961
2023-05-02T11:49:09.334Z,18.6731
2023-05-02T11:50:08.754Z,18.9098
2023-05-02T11:51:12.680Z,19.1291
2023-05-02T11:52:16.607Z,19.3238
2023-05-02T11:53:20.512Z,19.4554
2023-05-02T11:54:24.434Z,19.0153
2023-05-02T11:55:28.580Z,18.6034
2023-05-02T11:56:32.467Z,18.8097
2023-05-02T11:57:36.437Z,19.0907
2023-05-02T11:58:40.347Z,19.2961
2023-05-02T11:59:44.259Z,19.4586
2023-05-02T12:00:48.179Z,19.1518
2023-05-02T12:01:52.086Z,18.6421
2023-05-02T12:02:56.186Z,18.7982
2023-05-02T12:04:00.140Z,19.0552
2023-05-02T12:05:04.331Z,19.2585
2023-05-02T12:06:08.516Z,19.4295
2023-05-02T12:07:12.523Z,19.2365
2023-05-02T12:08:16.397Z,18.7171
2023-05-02T12:09:20.299Z,18.8137
2023-05-02T12:10:24.190Z,19.0612
2023-05-02T12:11:28.060Z,19.2638
2023-05-02T12:12:31.975Z,19.4400
2023-05-02T12:13:35.896Z,19.2964
2023-05-02T12:14:39.802Z,18.6649
2023-05-02T12:15:43.737Z,18.6119
2023-05-02T12:16:47.833Z,18.9318
2023-05-02T12:17:51.834Z,19.2000
2023-05-02T12:18:55.715Z,19.3996
2023-05-02T12:19:59.876Z,19.4238
2023-05-02T12:21:03.768Z,18.8150
2023-05-02T12:22:07.673Z,18.5033
2023-05-02T12:23:11.577Z,18.7934
2023-05-02T12:24:15.484Z,19.1083
2023-05-02T12:25:19.384Z,19.3266
2023-05-02T12:26:23.317Z,19.4680
2023-05-02T12:27:27.238Z,19.0724
2023-05-02T12:28:31.145Z,18.5734
2023-05-02T12:29:35.050Z,18.7500
2023-05-02T12:30:38.969Z,19.0084
2023-05-02T12:31:42.877Z,19.2075
2023-05-02T12:32:46.761Z,19.3824
2023-05-02T12:33:50.762Z,19.2176
2023-05-02T12:34:54.903Z,19.0245
2023-05-02T12:35:58.811Z,19.1627
2023-05-02T12:37:02.747Z,19.3456
2023-05-02T12:38:06.705Z,19.5245
2023-05-02T12:39:10.600Z,19.6336
2023-05-02T12:40:14.666Z,19.1067
2023-05-02T12:41:18.570Z,18.5191
2023-05-02T12:42:22.460Z,18.6075
2023-05-02T12:43:26.583Z,18.9307
2023-05-02T12:44:30.436Z,19.1752
2023-05-02T12:45:34.358Z,19.3664
2023-05-02T12:46:38.253Z,19.2795
2023-05-02T12:47:42.199Z,18.7288
2023-05-02T12:48:46.838Z,18.7775